createdAt,value
2018-04-08T00:01:11.160Z,15.50
2018-04-08T00:03:39.615Z,16.43
2018-04-08T00:06:07.315Z,15.13
2018-04-08T00:08:36.187Z,14.13
2018-04-08T00:11:03.882Z,13.73
2018-04-08T00:13:31.576Z,12.90
2018-04-08T00:15:59.478Z,14.17
2018-04-08T00:18:27.174Z,14.83
2018-04-08T00:20:54.871Z,14.63
2018-04-08T00:23:22.719Z,13.40
2018-04-08T00:25:50.425Z,12.83
2018-04-08T00:28:18.127Z,12.60
2018-04-08T00:30:46.164Z,13.17
2018-04-08T00:33:14.630Z,12.70
2018-04-08T00:35:42.327Z,12.80
2018-04-08T00:38:10.842Z,12.77
2018-04-08T00:40:38.535Z,12.33
2018-04-08T00:43:06.228Z,14.23
2018-04-08T00:45:35.115Z,15.33
2018-04-08T00:48:03.570Z,15.83
2018-04-08T00:50:31.270Z,14.67
2018-04-08T00:53:00.140Z,15.77
2018-04-08T00:55:27.835Z,15.97
2018-04-08T00:57:55.538Z,13.93
2018-04-08T01:00:23.302Z,14.27
2018-04-08T01:02:51.007Z,13.57
2018-04-08T01:05:19.483Z,13.27
2018-04-08T01:07:48.003Z,12.83
2018-04-08T01:10:15.695Z,12.13
2018-04-08T01:12:43.399Z,12.10
2018-04-08T01:15:11.958Z,11.23
2018-04-08T01:17:39.666Z,10.77
2018-04-08T01:20:07.363Z,10.53
2018-04-08T01:22:35.130Z,10.40
2018-04-08T01:25:02.828Z,10.43
2018-04-08T01:27:31.298Z,10.60
2018-04-08T01:29:59.039Z,11.47
2018-04-08T01:32:26.736Z,10.43
2018-04-08T01:34:55.195Z,11.47
2018-04-08T01:37:23.268Z,10.73
2018-04-08T01:39:50.963Z,11.60
2018-04-08T01:42:18.661Z,12.30
2018-04-08T01:44:47.391Z,12.03
2018-04-08T01:47:15.853Z,11.07
2018-04-08T01:49:43.547Z,10.30
2018-04-08T01:52:12.050Z,9.93
2018-04-08T01:54:39.746Z,10.10
2018-04-08T01:57:08.210Z,10.47
2018-04-08T01:59:35.950Z,11.17
2018-04-08T02:02:03.650Z,11.37
2018-04-08T02:04:31.362Z,11.97
2018-04-08T02:07:00.007Z,10.30
2018-04-08T02:09:27.707Z,9.93
2018-04-08T02:11:56.179Z,10.63
2018-04-08T02:14:24.689Z,13.27
2018-04-08T02:16:52.414Z,18.30
2018-04-08T02:19:20.107Z,10.77
2018-04-08T02:21:48.155Z,10.37
2018-04-08T02:24:16.607Z,9.77
2018-04-08T02:26:44.302Z,9.87
2018-04-08T02:29:12.911Z,9.70
2018-04-08T02:31:40.604Z,10.33
2018-04-08T02:34:08.304Z,10.53
2018-04-08T02:36:36.044Z,9.67
2018-04-08T02:39:03.802Z,10.30
2018-04-08T02:41:31.503Z,10.97
2018-04-08T02:44:00.119Z,10.20
2018-04-08T02:46:27.827Z,12.00
2018-04-08T02:48:55.531Z,10.27
2018-04-08T02:51:23.290Z,10.73
2018-04-08T02:53:51.753Z,11.60
2018-04-08T02:56:20.291Z,11.93
2018-04-08T02:58:48.395Z,11.50
2018-04-08T03:01:16.115Z,11.00
2018-04-08T03:03:43.812Z,10.17
2018-04-08T03:06:11.567Z,11.10
2018-04-08T03:08:39.266Z,9.77
2018-04-08T03:11:07.738Z,10.47
2018-04-08T03:13:36.347Z,10.33
2018-04-08T03:16:04.188Z,10.50
2018-04-08T03:18:32.667Z,11.50
2018-04-08T03:21:01.559Z,10.63
2018-04-08T03:23:30.023Z,10.60
2018-04-08T03:25:57.718Z,10.30
2018-04-08T03:28:25.674Z,10.33
2018-04-08T03:30:54.152Z,10.97
2018-04-08T03:33:22.610Z,9.47
2018-04-08T03:35:50.353Z,9.53
2018-04-08T03:38:18.811Z,9.00
2018-04-08T03:40:46.503Z,8.50
2018-04-08T03:43:14.234Z,9.07
2018-04-08T03:45:41.926Z,11.23
2018-04-08T03:48:09.651Z,9.83
2018-04-08T03:50:37.390Z,7.60
2018-04-08T03:53:05.863Z,13.67
2018-04-08T03:55:34.326Z,11.03
2018-04-08T03:58:02.328Z,10.37
2018-04-08T04:00:30.807Z,12.13
2018-04-08T04:02:59.295Z,13.60
2018-04-08T04:05:27.981Z,14.43
2018-04-08T04:07:56.474Z,11.07
2018-04-08T04:10:24.196Z,12.20
2018-04-08T04:12:52.090Z,9.93
2018-04-08T04:15:20.571Z,9.27
2018-04-08T04:17:49.043Z,10.73
2018-04-08T04:20:43.371Z,9.10
2018-04-08T04:23:22.787Z,8.10
2018-04-08T04:26:03.238Z,11.50
2018-04-08T04:28:31.712Z,10.03
2018-04-08T04:31:00.188Z,9.90
2018-04-08T04:33:28.366Z,10.00
2018-04-08T04:35:56.831Z,10.37
2018-04-08T04:38:24.523Z,10.73
2018-04-08T04:40:53.047Z,12.60
2018-04-08T04:43:21.517Z,13.80
2018-04-08T04:45:49.214Z,13.80
2018-04-08T04:48:17.294Z,13.10
2018-04-08T04:50:44.986Z,12.83
2018-04-08T04:53:12.682Z,11.87
2018-04-08T04:55:40.476Z,11.97
2018-04-08T04:58:08.171Z,10.27
2018-04-08T05:00:36.655Z,9.17
2018-04-08T05:03:04.710Z,10.47
2018-04-08T05:05:33.171Z,8.63
2018-04-08T05:08:00.859Z,8.53
2018-04-08T05:10:29.363Z,8.83
2018-04-08T05:12:57.056Z,8.03
2018-04-08T05:15:24.762Z,8.23
2018-04-08T05:17:53.265Z,8.07
2018-04-08T05:20:20.960Z,8.37
2018-04-08T05:22:48.663Z,8.10
2018-04-08T05:25:16.403Z,9.73
2018-04-08T05:27:44.879Z,8.30
2018-04-08T05:30:13.342Z,9.13
2018-04-08T05:32:41.095Z,8.80
2018-04-08T05:35:08.794Z,9.20
2018-04-08T05:37:37.259Z,8.87
2018-04-08T05:40:05.059Z,11.70
2018-04-08T05:42:32.752Z,9.57
2018-04-08T05:45:00.455Z,10.20
2018-04-08T05:47:28.991Z,13.13
2018-04-08T05:49:56.704Z,9.67
2018-04-08T05:52:25.246Z,10.67
2018-04-08T05:54:53.079Z,9.57
2018-04-08T05:57:20.799Z,9.00
2018-04-08T05:59:48.490Z,9.83
2018-04-08T06:02:16.387Z,10.20
2018-04-08T06:04:44.211Z,11.40
2018-04-08T06:07:12.678Z,9.00
2018-04-08T06:09:40.423Z,7.40
2018-04-08T06:12:08.123Z,5.50
2018-04-08T06:14:36.590Z,6.70
2018-04-08T06:17:05.274Z,7.37
2018-04-08T06:19:33.735Z,7.13
2018-04-08T06:22:01.430Z,8.07
2018-04-08T06:24:29.960Z,7.87
2018-04-08T06:26:57.668Z,7.40
2018-04-08T06:29:26.158Z,7.37
2018-04-08T06:31:54.772Z,8.50
2018-04-08T06:34:22.495Z,8.20
2018-04-08T06:36:50.987Z,8.43
2018-04-08T06:39:19.650Z,8.53
2018-04-08T06:41:47.376Z,7.57
2018-04-08T06:44:15.090Z,7.13
2018-04-08T06:46:43.606Z,8.73
2018-04-08T06:49:11.314Z,7.13
2018-04-08T06:51:39.023Z,7.40
2018-04-08T06:54:07.066Z,5.90
2018-04-08T06:56:35.532Z,7.17
2018-04-08T06:59:03.231Z,6.30
2018-04-08T07:01:31.758Z,6.47
2018-04-08T07:04:00.243Z,6.27
2018-04-08T07:06:27.939Z,6.13
2018-04-08T07:08:56.446Z,5.57
2018-04-08T07:11:24.139Z,5.73
2018-04-08T07:13:51.843Z,6.20
2018-04-08T07:16:21.135Z,6.93
2018-04-08T07:18:49.599Z,6.33
2018-04-08T07:21:17.308Z,6.43
2018-04-08T07:23:45.083Z,6.60
2018-04-08T07:26:12.788Z,5.87
2018-04-08T07:28:40.496Z,6.80
2018-04-08T07:31:08.242Z,7.23
2018-04-08T07:33:37.619Z,7.60
2018-04-08T07:36:05.319Z,5.90
2018-04-08T07:38:33.975Z,7.17
2018-04-08T07:41:01.671Z,7.97
2018-04-08T07:43:29.370Z,8.10
2018-04-08T07:45:57.108Z,6.87
2018-04-08T07:48:24.807Z,7.87
2018-04-08T07:50:52.511Z,8.50
2018-04-08T07:53:21.200Z,8.90
2018-04-08T07:55:49.665Z,8.50
2018-04-08T07:58:18.142Z,6.87
2018-04-08T08:00:46.659Z,7.87
2018-04-08T08:03:14.354Z,8.80
2018-04-08T08:05:42.818Z,8.00
2018-04-08T08:08:10.659Z,8.47
2018-04-08T08:10:38.358Z,7.60
2018-04-08T08:13:06.063Z,6.77
2018-04-08T08:15:34.074Z,6.80
2018-04-08T08:18:01.811Z,6.57
2018-04-08T08:20:30.456Z,7.00
2018-04-08T08:22:58.276Z,6.63
2018-04-08T08:25:25.982Z,6.10
2018-04-08T08:27:53.682Z,7.00
2018-04-08T08:30:22.232Z,5.40
2018-04-08T08:32:49.935Z,5.53
2018-04-08T08:35:17.636Z,5.53
2018-04-08T08:37:45.523Z,6.20
2018-04-08T08:40:13.219Z,5.57
2018-04-08T08:42:41.688Z,5.67
2018-04-08T08:45:09.751Z,5.60
2018-04-08T08:47:37.450Z,5.60
2018-04-08T08:50:05.146Z,5.10
2018-04-08T08:52:32.879Z,6.00
2018-04-08T08:55:00.625Z,5.23
2018-04-08T08:57:29.075Z,4.50
2018-04-08T08:59:57.065Z,4.43
2018-04-08T09:02:25.531Z,4.70
2018-04-08T09:04:53.245Z,4.77
2018-04-08T09:07:20.982Z,5.17
2018-04-08T09:09:49.455Z,5.63
2018-04-08T09:12:17.915Z,3.80
2018-04-08T09:14:47.222Z,3.90
2018-04-08T09:17:14.926Z,4.30
2018-04-08T09:19:48.394Z,4.70
2018-04-08T09:22:27.599Z,3.40
2018-04-08T09:25:15.112Z,3.80
2018-04-08T09:27:42.840Z,4.00
2018-04-08T09:30:10.537Z,3.67
2018-04-08T09:32:39.267Z,3.77
2018-04-08T09:35:07.763Z,3.37
2018-04-08T09:37:36.238Z,5.23
2018-04-08T09:40:04.769Z,3.37
2018-04-08T09:42:32.475Z,3.67
2018-04-08T09:45:00.952Z,3.70
2018-04-08T09:47:28.910Z,3.63
2018-04-08T09:49:56.595Z,3.53
2018-04-08T09:52:25.067Z,3.33
2018-04-08T09:54:53.728Z,3.47
2018-04-08T09:57:21.439Z,3.47
2018-04-08T09:59:49.147Z,3.43
2018-04-08T10:02:31.996Z,2.87
2018-04-08T10:05:00.467Z,3.60
2018-04-08T10:07:28.931Z,3.40
2018-04-08T10:09:56.673Z,3.20
2018-04-08T10:12:24.387Z,3.20
2018-04-08T10:14:52.847Z,3.50
2018-04-08T10:17:20.592Z,4.23
2018-04-08T10:19:49.076Z,3.43
2018-04-08T10:22:17.591Z,3.40
2018-04-08T10:24:45.366Z,3.73
2018-04-08T10:27:13.063Z,3.40
2018-04-08T10:29:41.530Z,3.33
2018-04-08T10:32:10.083Z,4.00
2018-04-08T10:34:37.785Z,4.57
2018-04-08T10:37:05.526Z,3.53
2018-04-08T10:39:33.287Z,4.93
2018-04-08T10:42:00.995Z,3.70
2018-04-08T10:44:28.700Z,4.00
2018-04-08T10:46:56.455Z,3.30
2018-04-08T10:49:24.919Z,3.83
2018-04-08T10:51:52.644Z,3.73
2018-04-08T10:54:21.166Z,4.13
2018-04-08T10:56:48.867Z,3.70
2018-04-08T10:59:16.573Z,3.60
2018-04-08T11:01:44.519Z,9.60
2018-04-08T11:04:13.001Z,3.60
2018-04-08T11:06:40.735Z,3.30
2018-04-08T11:09:09.281Z,3.10
2018-04-08T11:11:37.009Z,3.27
2018-04-08T11:14:04.732Z,3.60
2018-04-08T11:16:33.259Z,3.33
2018-04-08T11:19:00.959Z,3.60
2018-04-08T11:21:29.435Z,3.20
2018-04-08T11:23:57.953Z,3.80
2018-04-08T11:26:25.657Z,3.70
2018-04-08T11:28:53.356Z,3.50
2018-04-08T11:31:21.239Z,3.20
2018-04-08T11:33:48.943Z,4.00
2018-04-08T11:36:16.652Z,3.73
2018-04-08T11:38:44.609Z,3.87
2018-04-08T11:41:13.115Z,3.57
2018-04-08T11:43:40.850Z,3.67
2018-04-08T11:46:09.366Z,4.03
2018-04-08T11:48:37.059Z,3.90
2018-04-08T11:51:04.766Z,3.63
2018-04-08T11:53:33.424Z,4.10
2018-04-08T11:56:01.128Z,4.20
2018-04-08T11:58:28.865Z,3.50
2018-04-08T12:00:57.555Z,3.70
2018-04-08T12:03:26.060Z,3.90
2018-04-08T12:05:53.766Z,4.70
2018-04-08T12:08:21.541Z,4.97
2018-04-08T12:10:49.247Z,4.17
2018-04-08T12:13:17.218Z,4.20
2018-04-08T12:15:44.975Z,4.00
2018-04-08T12:18:12.680Z,4.37
2018-04-08T12:20:40.387Z,4.10
2018-04-08T12:23:09.035Z,4.10
2018-04-08T12:25:37.516Z,3.63
2018-04-08T12:28:05.231Z,3.80
2018-04-08T12:30:32.999Z,4.10
2018-04-08T12:33:00.755Z,4.10
2018-04-08T12:35:28.450Z,4.40
2018-04-08T12:37:57.131Z,3.77
2018-04-08T12:40:25.599Z,4.23
2018-04-08T12:42:53.362Z,3.90
2018-04-08T12:45:22.069Z,4.23
2018-04-08T12:47:50.552Z,4.00
2018-04-08T12:50:19.030Z,4.17
2018-04-08T12:52:47.644Z,4.00
2018-04-08T12:55:15.343Z,3.70
2018-04-08T12:57:43.043Z,3.70
2018-04-08T13:00:11.835Z,3.90
2018-04-08T13:02:40.711Z,3.40
2018-04-08T13:05:09.172Z,3.50
2018-04-08T13:07:37.210Z,3.90
2018-04-08T13:10:04.940Z,3.63
2018-04-08T13:12:32.680Z,3.77
2018-04-08T13:15:01.212Z,3.53
2018-04-08T13:17:28.922Z,3.57
2018-04-08T13:19:56.636Z,3.53
2018-04-08T13:22:24.383Z,4.27
2018-04-08T13:24:52.856Z,4.60
2018-04-08T13:27:21.324Z,4.40
2018-04-08T13:29:49.069Z,3.77
2018-04-08T13:32:16.777Z,3.97
2018-04-08T13:34:45.251Z,4.13
2018-04-08T13:37:13.782Z,5.10
2018-04-08T13:39:41.478Z,4.03
2018-04-08T13:42:09.179Z,4.33
2018-04-08T13:44:37.791Z,4.63
2018-04-08T13:47:05.511Z,4.13
2018-04-08T13:49:33.996Z,4.03
2018-04-08T13:52:02.519Z,4.33
2018-04-08T13:54:30.254Z,3.83
2018-04-08T13:56:57.970Z,3.90
2018-04-08T13:59:25.823Z,4.00
2018-04-08T14:01:53.527Z,5.00
2018-04-08T14:04:22.007Z,4.57
2018-04-08T14:06:50.691Z,4.27
2018-04-08T14:09:19.167Z,4.53
2018-04-08T14:11:47.646Z,4.10
2018-04-08T14:14:16.165Z,3.70
2018-04-08T14:16:43.875Z,3.57
2018-04-08T14:19:11.861Z,3.40
2018-04-08T14:21:40.397Z,3.60
2018-04-08T14:24:08.114Z,4.00
2018-04-08T14:26:36.596Z,3.67
2018-04-08T14:29:05.288Z,4.10
2018-04-08T14:31:33.760Z,4.00
2018-04-08T14:34:02.238Z,3.90
2018-04-08T14:36:31.131Z,3.50
2018-04-08T14:38:59.611Z,4.00
2018-04-08T14:41:28.075Z,4.13
2018-04-08T14:43:56.151Z,3.67
2018-04-08T14:46:23.858Z,3.70
2018-04-08T14:48:51.593Z,5.50
2018-04-08T14:51:20.128Z,5.10
2018-04-08T14:53:47.843Z,4.37
2018-04-08T14:56:16.314Z,4.53
2018-04-08T14:58:44.847Z,10.03
2018-04-08T15:01:12.563Z,5.37
2018-04-08T15:03:41.026Z,3.90
2018-04-08T15:06:08.907Z,4.40
2018-04-08T15:08:37.391Z,4.33
2018-04-08T15:11:05.875Z,4.47
2018-04-08T15:13:34.772Z,4.60
2018-04-08T15:16:02.499Z,3.87
2018-04-08T15:18:30.227Z,3.77
2018-04-08T15:20:58.371Z,3.87
2018-04-08T15:23:26.867Z,4.00
2018-04-08T15:25:54.572Z,4.17
2018-04-08T15:28:22.680Z,4.07
2018-04-08T15:37:36.507Z,4.20
2018-04-08T15:40:04.265Z,4.00
2018-04-08T15:42:33.068Z,4.30
2018-04-08T15:45:00.824Z,3.77
2018-04-08T15:47:28.544Z,3.93
2018-04-08T15:49:57.027Z,4.00
2018-04-08T15:52:25.576Z,3.97
2018-04-08T15:54:53.280Z,4.43
2018-04-08T15:57:20.989Z,4.03
2018-04-08T15:59:48.748Z,4.77
2018-04-08T16:02:16.492Z,5.33
2018-04-08T16:04:44.236Z,4.90
2018-04-08T16:07:12.337Z,4.40
2018-04-08T16:09:40.051Z,4.43
2018-04-08T16:12:09.528Z,4.73
2018-04-08T16:14:37.532Z,6.40
2018-04-08T16:17:05.245Z,11.07
2018-04-08T16:19:32.966Z,8.87
2018-04-08T16:22:00.716Z,5.20
2018-04-08T16:24:28.420Z,4.63
2018-04-08T16:26:56.128Z,5.90
2018-04-08T16:29:23.988Z,6.80
2018-04-08T16:31:52.464Z,5.37
2018-04-08T16:34:20.964Z,4.60
2018-04-08T16:36:48.912Z,4.47
2018-04-08T16:39:17.400Z,4.73
2018-04-08T16:41:45.877Z,5.43
2018-04-08T16:44:14.415Z,5.77
2018-04-08T16:46:42.119Z,7.30
2018-04-08T16:49:10.597Z,9.27
2018-04-08T16:51:39.120Z,11.70
2018-04-08T16:54:06.847Z,11.07
2018-04-08T16:56:35.330Z,12.13
2018-04-08T16:59:04.020Z,10.73
2018-04-08T17:01:31.750Z,4.83
2018-04-08T17:03:59.464Z,4.60
2018-04-08T17:06:27.240Z,4.03
2018-04-08T17:08:54.944Z,4.30
2018-04-08T17:11:22.648Z,4.50
2018-04-08T17:13:50.432Z,4.73
2018-04-08T17:16:18.133Z,4.63
2018-04-08T17:18:45.840Z,4.27
2018-04-08T17:21:14.512Z,5.20
2018-04-08T17:23:42.252Z,4.20
2018-04-08T17:26:09.996Z,5.40
2018-04-08T17:28:38.889Z,5.10
2018-04-08T17:31:07.364Z,4.57
2018-04-08T17:33:35.863Z,4.43
2018-04-08T17:36:03.817Z,8.43
2018-04-08T17:38:31.540Z,5.07
2018-04-08T17:41:00.029Z,6.90
2018-04-08T17:43:28.928Z,3.87
2018-04-08T17:45:57.404Z,4.33
2018-04-08T17:48:25.120Z,3.67
2018-04-08T17:50:52.973Z,4.17
2018-04-08T17:53:20.708Z,5.33
2018-04-08T17:55:48.416Z,4.30
2018-04-08T17:58:16.323Z,4.10
2018-04-08T18:00:44.800Z,4.53
2018-04-08T18:03:13.304Z,5.77
2018-04-08T18:05:41.157Z,5.77
2018-04-08T18:08:09.636Z,4.63
2018-04-08T18:10:38.127Z,4.47
2018-04-08T18:13:05.995Z,24.80
2018-04-08T18:15:33.724Z,19.03
2018-04-08T18:18:01.453Z,54.87
2018-04-08T18:20:29.355Z,20.57
2018-04-08T18:22:57.096Z,39.60
2018-04-08T18:25:24.812Z,11.10
2018-04-08T18:27:52.584Z,6.77
2018-04-08T18:30:20.297Z,6.20
2018-04-08T18:32:48.008Z,4.63
2018-04-08T18:35:16.750Z,3.63
2018-04-08T18:37:48.581Z,4.30
2018-04-08T18:40:16.412Z,4.90
2018-04-08T18:42:45.467Z,4.20
2018-04-08T18:45:13.439Z,5.13
2018-04-08T18:47:41.701Z,4.77
2018-04-08T18:50:09.435Z,5.00
2018-04-08T18:52:38.047Z,4.93
2018-04-08T18:55:05.983Z,5.70
2018-04-08T18:57:34.491Z,5.60
2018-04-08T19:00:02.193Z,5.90
2018-04-08T19:02:30.100Z,5.50
2018-04-08T19:04:57.812Z,5.90
2018-04-08T19:07:25.523Z,5.87
2018-04-08T19:09:54.060Z,6.03
2018-04-08T19:12:22.536Z,5.93
2018-04-08T19:14:56.107Z,6.40
2018-04-08T19:17:29.495Z,5.93
2018-04-08T19:19:57.346Z,6.23
2018-04-08T19:22:25.879Z,6.80
2018-04-08T19:24:53.601Z,7.00
2018-04-08T19:27:27.663Z,6.63
2018-04-08T19:29:55.364Z,5.70
2018-04-08T19:32:23.842Z,6.10
2018-04-08T19:34:52.530Z,5.83
2018-04-08T19:37:21.015Z,6.33
2018-04-08T19:39:49.491Z,6.07
2018-04-08T19:42:18.011Z,6.93
2018-04-08T19:44:45.741Z,6.83
2018-04-08T19:47:14.223Z,7.97
2018-04-08T19:49:42.739Z,16.40
2018-04-08T19:52:10.457Z,10.30
2018-04-08T19:54:38.947Z,10.17
2018-04-08T19:57:07.631Z,83.03
2018-04-08T19:59:36.119Z,107.60
2018-04-08T20:02:04.599Z,96.37
2018-04-08T20:04:33.209Z,68.07
2018-04-08T20:07:01.091Z,30.77
2018-04-08T20:09:30.321Z,37.23
2018-04-08T20:11:58.862Z,18.70
2018-04-08T20:14:26.572Z,8.60
2018-04-08T20:16:55.044Z,7.10
2018-04-08T20:19:23.564Z,7.30
2018-04-08T20:21:51.373Z,7.57
2018-04-08T20:24:19.107Z,8.40
2018-04-08T20:26:47.654Z,8.23
2018-04-08T20:29:15.352Z,9.20
2018-04-08T20:31:43.064Z,29.37
2018-04-08T20:34:11.605Z,23.73
2018-04-08T20:36:39.311Z,14.83
2018-04-08T20:39:07.824Z,15.47
2018-04-08T20:41:35.967Z,13.87
2018-04-08T20:44:04.457Z,9.60
2018-04-08T20:46:32.176Z,8.10
2018-04-08T20:49:00.206Z,7.57
2018-04-08T20:51:27.926Z,8.13
2018-04-08T20:53:55.624Z,7.80
2018-04-08T20:56:23.572Z,8.00
2018-04-08T20:58:52.053Z,7.63
2018-04-08T21:01:20.528Z,7.27
2018-04-08T21:03:49.064Z,7.07
2018-04-08T21:06:16.779Z,7.23
2018-04-08T21:08:45.438Z,7.33
2018-04-08T21:11:13.190Z,7.13
2018-04-08T21:13:40.888Z,7.83
2018-04-08T21:16:09.396Z,7.90
2018-04-08T21:18:37.433Z,7.50
2018-04-08T21:21:05.921Z,7.23
2018-04-08T21:23:34.503Z,7.73
2018-04-08T21:26:03.044Z,7.60
2018-04-08T21:28:31.508Z,7.23
2018-04-08T21:30:59.225Z,7.20
2018-04-08T21:33:27.760Z,6.87
2018-04-08T21:35:55.468Z,7.90
2018-04-08T21:38:23.932Z,8.07
2018-04-08T21:40:51.688Z,7.60
2018-04-08T21:43:19.428Z,7.93
2018-04-08T21:45:47.119Z,8.10
2018-04-08T21:48:15.112Z,8.00
2018-04-08T21:50:43.588Z,7.53
2018-04-08T21:53:11.300Z,8.13
2018-04-08T21:55:39.148Z,7.57
2018-04-08T21:58:06.879Z,8.13
2018-04-08T22:00:35.357Z,7.77
2018-04-08T22:03:04.152Z,8.20
2018-04-08T22:05:31.852Z,8.43
2018-04-08T22:07:59.556Z,7.80
2018-04-08T22:10:27.308Z,7.80
2018-04-08T22:12:55.007Z,8.40
2018-04-08T22:15:23.492Z,9.43
2018-04-08T22:17:52.025Z,9.17
2018-04-08T22:20:19.732Z,9.27
2018-04-08T22:22:48.212Z,9.03
2018-04-08T22:25:16.825Z,10.10
2018-04-08T22:27:44.523Z,9.97
2018-04-08T22:30:12.223Z,9.87
2018-04-08T22:32:40.760Z,9.37
2018-04-08T22:35:08.482Z,8.90
2018-04-08T22:37:36.965Z,8.30
2018-04-08T22:40:05.640Z,8.17
2018-04-08T22:49:19.220Z,7.80
2018-04-08T22:51:47.702Z,7.80
2018-04-08T22:54:16.176Z,8.07
2018-04-08T22:56:44.707Z,8.37
2018-04-08T22:59:12.420Z,8.50
2018-04-08T23:01:40.900Z,9.00
2018-04-08T23:04:09.433Z,10.40
2018-04-08T23:06:37.135Z,8.70
2018-04-08T23:09:05.641Z,10.10
2018-04-08T23:11:34.228Z,8.60
2018-04-08T23:14:02.701Z,8.83
2018-04-08T23:16:31.181Z,10.20
2018-04-08T23:18:59.045Z,8.57
2018-04-08T23:21:27.536Z,8.77
2018-04-08T23:23:55.261Z,9.33
2018-04-08T23:26:23.147Z,8.97
2018-04-08T23:28:52.347Z,8.13
2018-04-08T23:31:20.833Z,7.97
2018-04-08T23:33:49.512Z,7.60
2018-04-08T23:36:17.981Z,7.70
2018-04-08T23:38:45.679Z,8.00
2018-04-08T23:41:13.824Z,7.60
2018-04-08T23:43:41.546Z,7.10
2018-04-08T23:46:09.243Z,8.03
2018-04-08T23:48:37.019Z,8.10
2018-04-08T23:51:05.508Z,7.97
2018-04-08T23:53:33.975Z,7.50
2018-04-08T23:56:02.055Z,7.17
2018-04-08T23:58:30.532Z,6.60
